Address 0x890b9a1b90ef3223c3091380365c59de2bcfc4f3

Overview

Balance:
4.472262785644902798 AVAX

AVAX Value:
$76.21 (@ $17.04/AVAX)

Token:
Txn Hash Method
Block
From
To
Value [Txn Fee]
0x69d0c520386b5b8c2c8b7db7591f61f13328e5aa867710584d3e83fd9d2000afOpen Position206030272022-10-03 18:06:5840 mins ago0x890b9a1b90ef3223c3091380365c59de2bcfc4f3OUT 0x4e3535964cb5612a466d8bb25362d485452efcef0 AVAX0.020579608 28
0x2252732170f32bd4dee663b1853032c25ada331824e0b1e09b64fcdc4b70b34eOpen Position206025782022-10-03 17:51:4055 mins ago0x890b9a1b90ef3223c3091380365c59de2bcfc4f3OUT 0x4e3535964cb5612a466d8bb25362d485452efcef0 AVAX0.020762644 28
0x2a4c11543335a1c2cb1861832895504dd785d9bd73e607fe3fa0d90640d5f34cOpen Position206020172022-10-03 17:32:101 hr 14 mins ago0x890b9a1b90ef3223c3091380365c59de2bcfc4f3OUT 0x4e3535964cb5612a466d8bb25362d485452efcef0 AVAX0.020226752 28
0xde2c84aef61e6df95716432fbc2cf84fb686ea4c82f9b125809d338dd74d287cOpen Position206019962022-10-03 17:31:311 hr 15 mins ago0x890b9a1b90ef3223c3091380365c59de2bcfc4f3OUT 0x4e3535964cb5612a466d8bb25362d485452efcef0 AVAX0.020172712 28
0x33ad325104bed78bdcb821dbffa2b41ce8e5c34644e90240d072ce113590b08eOpen Position206017462022-10-03 17:22:371 hr 24 mins ago0x890b9a1b90ef3223c3091380365c59de2bcfc4f3OUT 0x4e3535964cb5612a466d8bb25362d485452efcef0 AVAX0.020208552 28
0xb32b24427eb086fdd389234983a1b862e9e77cb07a4df2782270408c133a6096Open Position206013362022-10-03 17:08:321 hr 38 mins ago0x890b9a1b90ef3223c3091380365c59de2bcfc4f3OUT 0x4e3535964cb5612a466d8bb25362d485452efcef0 AVAX0.020208552 28
0x1c71635fbc2a1d98d7cfa4a4cefbaf6ba1a14bd5c1f64627ad0e39363c8da88dOpen Position206011472022-10-03 17:02:091 hr 44 mins ago0x890b9a1b90ef3223c3091380365c59de2bcfc4f3OUT 0x4e3535964cb5612a466d8bb25362d485452efcef0 AVAX0.020226752 28
0x947b06e5a31d2ba83e274b30c658d19432bf9e8b4bf1f351d0df140fbfddb7c5Open Position206010902022-10-03 17:00:111 hr 46 mins ago0x890b9a1b90ef3223c3091380365c59de2bcfc4f3OUT 0x4e3535964cb5612a466d8bb25362d485452efcef0 AVAX0.020541248 28
0xea92fcd1e252d29d17f2dab88f2b3b420f2cb6fc17b1825a3b9ee5806f22d9d4Open Position206008362022-10-03 16:51:311 hr 55 mins ago0x890b9a1b90ef3223c3091380365c59de2bcfc4f3OUT 0x4e3535964cb5612a466d8bb25362d485452efcef0 AVAX0.020835724 28
0x4681954c11b6224a466b8d8b8cb25a81ea3eecf0732bdeb9451b45a18c7e2af6Open Position206003892022-10-03 16:36:152 hrs 10 mins ago0x890b9a1b90ef3223c3091380365c59de2bcfc4f3OUT 0x4e3535964cb5612a466d8bb25362d485452efcef0 AVAX0.020226752 28
0x4b1718f383273bca4bae76f9510c8b13d9f53c1d92fdd6e170d21f8b04563765Open Position206003332022-10-03 16:34:202 hrs 12 mins ago0x890b9a1b90ef3223c3091380365c59de2bcfc4f3OUT 0x4e3535964cb5612a466d8bb25362d485452efcef0 AVAX0.020117552 28
0xeb5fc6c918e8beb84b9061979a594710beedc92a3564fc0245bdde0befda0390Open Position206000512022-10-03 16:24:252 hrs 22 mins ago0x890b9a1b90ef3223c3091380365c59de2bcfc4f3OUT 0x4e3535964cb5612a466d8bb25362d485452efcef0 AVAX0.020577648 28
0xd0329009264f405c7b888bd5433e4f75dac039cb58885de9f5fa096304c85ea1Open Position205985632022-10-03 15:33:073 hrs 13 mins ago0x890b9a1b90ef3223c3091380365c59de2bcfc4f3OUT 0x4e3535964cb5612a466d8bb25362d485452efcef0 AVAX0.020797924 28
0x3065199466eed2afc565c8012762ebdda8f39493d86dcf4d419b0e7d69d1b91aOpen Position205983232022-10-03 15:24:563 hrs 22 mins ago0x890b9a1b90ef3223c3091380365c59de2bcfc4f3OUT 0x4e3535964cb5612a466d8bb25362d485452efcef0 AVAX0.020835164 28
0x2a918f4e322a2cbb002e3558788e30a0529f283c602e1fa8119bc5047e6166c2Open Position205979932022-10-03 15:13:483 hrs 33 mins ago0x890b9a1b90ef3223c3091380365c59de2bcfc4f3OUT 0x4e3535964cb5612a466d8bb25362d485452efcef0 AVAX0.020834044 28
0x10fb0e1a65af141b41c3d18d67c4af94664a1021df8d0db6ec985056adad9068Open Position205979472022-10-03 15:12:153 hrs 34 mins ago0x890b9a1b90ef3223c3091380365c59de2bcfc4f3OUT 0x4e3535964cb5612a466d8bb25362d485452efcef0 AVAX0.020834884 28
0x2f90418fa7caf5ee2d2c54bfcfc922c748a0ef451fcca32425ed4e991d678582Open Position205979172022-10-03 15:11:113 hrs 35 mins ago0x890b9a1b90ef3223c3091380365c59de2bcfc4f3OUT 0x4e3535964cb5612a466d8bb25362d485452efcef0 AVAX0.020780004 28
0x8986f4e625b02b2410309569b05829186300bfe44e671c8915dab4371019df9aOpen Position205979142022-10-03 15:11:053 hrs 36 mins ago0x890b9a1b90ef3223c3091380365c59de2bcfc4f3OUT 0x4e3535964cb5612a466d8bb25362d485452efcef0 AVAX0.020798484 28
0x25073fd76ea46725b19c0b0e73fd83d4a7440fd21c1c79bc912ec545c8ad7005Open Position205979052022-10-03 15:10:433 hrs 36 mins ago0x890b9a1b90ef3223c3091380365c59de2bcfc4f3OUT 0x4e3535964cb5612a466d8bb25362d485452efcef0 AVAX0.020190632 28
0xaf8d925498929f17745d8d3ac272c6051f442342bbb3b3d9dfd8709b478f76a8Open Position205978982022-10-03 15:10:333 hrs 36 mins ago0x890b9a1b90ef3223c3091380365c59de2bcfc4f3OUT 0x4e3535964cb5612a466d8bb25362d485452efcef0 AVAX0.020227312 28
0x5287fabd6e2137f03c1eb6f32b8b988da69e61e24981ae5e99dcbc8b24ef7033Open Position205978122022-10-03 15:07:383 hrs 39 mins ago0x890b9a1b90ef3223c3091380365c59de2bcfc4f3OUT 0x4e3535964cb5612a466d8bb25362d485452efcef0 AVAX0.020578768 28
0x83d34562a2e3a70f645e25f81fb7aefab1c74d28bedda4a113b3cfdadcd2f41cOpen Position205972332022-10-03 14:47:453 hrs 59 mins ago0x890b9a1b90ef3223c3091380365c59de2bcfc4f3OUT 0x4e3535964cb5612a466d8bb25362d485452efcef0 AVAX0.020226472 28
0x232272b4bfe7b7a5ed99396583a22a65e7c0ea11636434f411958f8a0160f58eOpen Position205971562022-10-03 14:45:094 hrs 1 min ago0x890b9a1b90ef3223c3091380365c59de2bcfc4f3OUT 0x4e3535964cb5612a466d8bb25362d485452efcef0 AVAX0.020208552 28
0x1002672ab0e591928062f6db669cf2579ebaf768bac2233e11ff215f67c11b6aOpen Position205969492022-10-03 14:38:064 hrs 8 mins ago0x890b9a1b90ef3223c3091380365c59de2bcfc4f3OUT 0x4e3535964cb5612a466d8bb25362d485452efcef0 AVAX0.020797644 28
0x1e727a39047c2ad07fba6e695f5ba5cbb578fcf115c978e16797222043ebfaa0Open Position205969432022-10-03 14:37:544 hrs 9 mins ago0x890b9a1b90ef3223c3091380365c59de2bcfc4f3OUT 0x4e3535964cb5612a466d8bb25362d485452efcef0 AVAX0.020834324 28
[ Download CSV Export 
Latest 6 internal transactions
Parent Txn Hash Block From To Value
0xc1355e4ff2cdb6ed9b5630743e6be7bcec70b3abfb4285d65fc62b5d34d99713203726222022-09-28 6:01:185 days 12 hrs ago 1inch v4: Router0x890b9a1b90ef3223c3091380365c59de2bcfc4f311.740610287574740526 AVAX
0x2712a5abc6464f59294ea58c7044b840cd95da44643294dfabe9b0439aa6fbb9201585172022-09-23 2:08:0410 days 16 hrs ago Trader Joe: Router0x890b9a1b90ef3223c3091380365c59de2bcfc4f316.909139051001208601 AVAX
0x9addc3918e0b1e4bb94fa06ad34971563d741e0ec68f51aa99d191a9e5a5cf74198890962022-09-15 5:40:1218 days 13 hrs ago 1inch v4: Router0x890b9a1b90ef3223c3091380365c59de2bcfc4f3265.450051108988805348 AVAX
0xbe92a0812d2856265d7d28311b89c121f266a360f25cbb2e3d9427d51e0830ba198005692022-09-12 15:16:5721 days 3 hrs ago 1inch v4: Router0x890b9a1b90ef3223c3091380365c59de2bcfc4f323.119447085158353794 AVAX
0xb495c115ee234ec162b5cf873586787b419a32ca6d5434c7380db63677934dbf195532052022-09-05 3:04:3328 days 15 hrs ago 0x195256074192170d1530527abc9943759c7167d80x890b9a1b90ef3223c3091380365c59de2bcfc4f30.995975520103549459 AVAX
0xb90cd3ffa6f26028359479ec11474ea8098745fb2bd1996129937a9e9006ec5d185703002022-08-13 1:40:5751 days 17 hrs ago Trader Joe: Router0x890b9a1b90ef3223c3091380365c59de2bcfc4f33.344223368145260153 AVAX
[ Download CSV Export 
Loading

Contract Name:
0

Compiler Version
0

Optimization Enabled:
0

Other Settings:
-NA-
Block Transaction Gas Used Reward
Age Block Fee Address BC Fee Address Voting Power Jailed Incoming
Block Uncle Number Difficulty Gas Used Reward
Loading
Make sure to use the "Vote Down" button for any spammy posts, and the "Vote Up" for interesting conversations.